Time;durP1;ratioP1;P1;durP2;ratioP2;P2;SDS_P1;SDS_P2;PMS_P1;PMS_P2;Temp;Humidity;BMP_temperature;BMP_pressure;BME280_temperature;BME280_humidity;BME280_pressure;Samples;Min_cycle;Max_cycle;Signal;HPM_P1;HPM_P2
2022/02/06 00:02:34;;;;;;;16.80;7.72;;;;;;;0.27;90.04;100944.72;5115446;28;20039;-72
2022/02/06 00:05:04;;;;;;;14.48;7.15;;;;;;;0.25;89.07;100952.63;5115565;28;20035;-72
2022/02/06 00:07:33;;;;;;;16.25;7.47;;;;;;;0.28;89.79;100947.34;5115441;28;20492;-72
2022/02/06 00:10:02;;;;;;;12.25;6.03;;;;;;;0.39;88.39;100944.66;5115716;28;20133;-72
2022/02/06 00:12:35;;;;;;;12.48;6.05;;;;;;;0.45;88.35;100946.34;5115476;28;20410;-72
2022/02/06 00:15:04;;;;;;;9.45;4.25;;;;;;;0.51;86.77;100943.69;5115262;28;20048;-72
2022/02/06 00:17:32;;;;;;;12.88;5.75;;;;;;;0.63;86.03;100940.06;5115208;28;20483;-72
2022/02/06 00:20:01;;;;;;;13.50;5.55;;;;;;;0.65;85.81;100939.16;5115333;28;20069;-72
2022/02/06 00:22:35;;;;;;;11.52;5.72;;;;;;;0.66;85.77;100935.66;5115064;28;20063;-72
2022/02/06 00:25:16;;;;;;;10.65;4.80;;;;;;;0.77;83.67;100927.69;5115445;28;20122;-72
2022/02/06 00:28:11;;;;;;;11.18;4.57;;;;;;;0.80;84.23;100940.81;5115070;28;20040;-72
2022/02/06 00:30:44;;;;;;;11.77;4.53;;;;;;;0.82;83.34;100928.53;5114101;28;20039;-72
2022/02/06 00:33:21;;;;;;;8.32;4.20;;;;;;;0.89;82.66;100929.34;5114699;28;20092;-72
2022/02/06 00:36:00;;;;;;;10.25;4.68;;;;;;;0.81;83.70;100932.03;5096526;28;20048;-72
2022/02/06 00:38:35;;;;;;;7.70;4.10;;;;;;;0.82;83.28;100929.38;5114916;28;20039;-72
2022/02/06 00:41:14;;;;;;;8.13;3.83;;;;;;;0.82;83.09;100920.63;5115157;28;20119;-72
2022/02/06 00:43:44;;;;;;;8.73;3.75;;;;;;;0.79;83.42;100918.06;5114439;28;20039;-72
2022/02/06 00:46:13;;;;;;;10.70;3.97;;;;;;;0.77;83.13;100920.69;5114870;28;20032;-72
2022/02/06 00:48:49;;;;;;;9.55;4.15;;;;;;;0.75;82.87;100921.56;5114659;28;20380;-72
2022/02/06 00:51:25;;;;;;;9.95;4.53;;;;;;;0.71;83.16;100917.25;5115090;28;20045;-72
2022/02/06 00:53:53;;;;;;;7.72;3.45;;;;;;;0.88;81.47;100915.34;5114706;28;20127;-72
2022/02/06 00:56:23;;;;;;;6.93;3.53;;;;;;;1.02;79.82;100907.31;5114651;28;20457;-72
2022/02/06 00:58:51;;;;;;;10.18;4.30;;;;;;;1.06;79.47;100909.91;5114640;28;20122;-72
2022/02/06 01:01:19;;;;;;;15.30;5.97;;;;;;;0.81;81.05;100898.75;5114215;28;20043;-72
2022/02/06 01:03:48;;;;;;;16.58;6.55;;;;;;;0.69;81.82;100892.78;5114208;28;20046;-72
2022/02/06 01:06:16;;;;;;;13.18;5.82;;;;;;;0.60;82.84;100896.34;5114607;28;20372;-72
2022/02/06 01:08:44;;;;;;;11.68;5.75;;;;;;;0.55;83.86;100901.63;5114303;28;20035;-72
2022/02/06 01:11:13;;;;;;;14.40;5.45;;;;;;;0.65;82.88;100902.41;5114463;28;20419;-72
2022/02/06 01:13:58;;;;;;;11.55;4.72;;;;;;;0.84;81.51;100905.72;5114158;28;20044;-72
2022/02/06 01:16:30;;;;;;;12.65;5.70;;;;;;;0.96;80.03;100907.34;5113707;28;20036;-73
2022/02/06 01:19:07;;;;;;;13.13;5.72;;;;;;;0.66;82.16;100916.41;5114223;28;20061;-72
2022/02/06 01:21:49;;;;;;;10.95;5.38;;;;;;;0.55;83.89;100920.00;5113651;28;20043;-72
2022/02/06 01:24:21;;;;;;;12.85;5.13;;;;;;;0.45;83.63;100910.47;5114313;28;20536;-72
2022/02/06 01:26:57;;;;;;;12.68;4.90;;;;;;;0.41;84.21;100903.50;5113987;28;20031;-72
2022/02/06 01:29:37;;;;;;;12.70;4.60;;;;;;;0.40;83.61;100887.78;5114266;28;20043;-72
2022/02/06 01:32:12;;;;;;;11.23;4.63;;;;;;;0.39;83.42;100884.28;5114251;28;20407;-72
2022/02/06 01:34:45;;;;;;;10.25;4.10;;;;;;;0.43;83.76;100875.50;5113856;28;20385;-72
2022/02/06 01:37:22;;;;;;;;;;;;;;;0.61;83.04;100870.97;5114510;28;20036;-72
2022/02/06 01:40:05;;;;;;;11.20;4.05;;;;;;;0.54;82.87;100871.00;5113285;28;19919;-75
2022/02/06 01:42:39;;;;;;;15.52;6.03;;;;;;;0.36;84.20;100871.19;5113253;28;20557;-74
2022/02/06 02:02:05;;;;;;;14.10;5.70;;;;;;;0.39;83.61;100844.06;5113704;28;20133;-79
2022/02/06 02:04:43;;;;;;;14.50;5.95;;;;;;;0.41;82.48;100842.28;5113565;28;20039;-79
2022/02/06 02:07:35;;;;;;;9.73;4.75;;;;;;;0.29;83.42;100843.28;5113914;28;20043;-79
2022/02/06 02:10:26;;;;;;;10.55;4.22;;;;;;;0.19;84.47;100841.56;5113625;28;20051;-79
2022/02/06 02:22:11;;;;;;;14.18;6.65;;;;;;;-0.05;85.74;100830.41;5076743;28;20131;-82
2022/02/06 02:25:06;;;;;;;14.27;6.72;;;;;;;-0.07;87.74;100824.31;5113361;28;20122;-81
2022/02/06 02:27:52;;;;;;;12.27;5.88;;;;;;;-0.09;87.75;100818.22;5113391;28;20042;-82
2022/02/06 02:47:14;;;;;;;16.73;6.90;;;;;;;-0.08;85.34;100833.06;5092791;28;20134;-82
2022/02/06 02:49:50;;;;;;;15.73;8.10;;;;;;;-0.10;86.15;100820.81;5095140;28;20056;-80
2022/02/06 02:52:42;;;;;;;14.75;7.20;;;;;;;0.04;85.51;100823.34;5113023;28;20126;-78
2022/02/06 02:58:05;;;;;;;12.27;6.82;;;;;;;0.01;85.22;100818.16;5116036;28;20048;-79
2022/02/06 03:00:54;;;;;;;12.27;6.47;;;;;;;0.01;84.16;100820.78;5116841;28;20061;-78
2022/02/06 03:03:26;;;;;;;10.88;5.43;;;;;;;-0.02;83.74;100817.25;5116951;28;20036;-77
2022/02/06 03:05:56;;;;;;;12.07;6.45;;;;;;;0.01;82.93;100820.78;5116821;28;20044;-79
2022/02/06 03:08:25;;;;;;;11.85;5.65;;;;;;;0.00;82.91;100817.28;5116878;28;20050;-79
2022/02/06 03:10:55;;;;;;;10.40;5.70;;;;;;;0.00;82.94;100814.66;5116637;28;20044;-79
2022/02/06 03:13:28;;;;;;;9.65;4.95;;;;;;;-0.14;83.69;100809.50;5116603;28;20058;-79
2022/02/06 03:16:04;;;;;;;14.43;5.63;;;;;;;-0.14;84.23;100812.13;5116329;28;20043;-79
2022/02/06 03:18:42;;;;;;;12.15;5.22;;;;;;;-0.12;84.07;100805.09;5116732;28;20675;-79
2022/02/06 03:21:18;;;;;;;8.82;4.45;;;;;;;-0.09;83.56;100809.47;5098146;28;20040;-78
2022/02/06 03:23:50;;;;;;;8.35;4.47;;;;;;;0.04;84.32;100808.50;5116274;28;20469;-79
2022/02/06 03:26:21;;;;;;;12.55;4.93;;;;;;;0.17;83.01;100804.00;5116790;28;20444;-79
2022/02/06 03:28:51;;;;;;;8.05;4.55;;;;;;;0.12;83.68;100806.69;5116228;28;20164;-78
2022/02/06 03:31:19;;;;;;;9.73;5.38;;;;;;;0.20;81.50;100809.25;5116702;28;20039;-78
2022/02/06 03:33:50;;;;;;;9.25;5.07;;;;;;;0.28;81.22;100804.75;5116211;28;20048;-78
2022/02/06 03:36:19;;;;;;;9.20;4.63;;;;;;;0.33;80.77;100795.09;5116117;28;20036;-79
2022/02/06 03:38:51;;;;;;;8.45;5.10;;;;;;;0.12;81.90;100790.06;5115671;28;20046;-78
2022/02/06 03:41:22;;;;;;;12.90;5.47;;;;;;;0.13;82.49;100799.69;5116387;28;20402;-79
2022/02/06 03:43:57;;;;;;;12.82;6.10;;;;;;;0.18;81.43;100797.88;5115629;28;20051;-79
2022/02/06 03:46:30;;;;;;;13.25;6.40;;;;;;;0.27;80.41;100797.78;5115947;28;20118;-80
2022/02/06 03:49:05;;;;;;;17.13;7.05;;;;;;;0.32;79.93;100793.38;5115586;28;20055;-79
2022/02/06 03:51:35;;;;;;;14.68;7.15;;;;;;;0.29;79.58;100780.28;5116297;28;20513;-79
2022/02/06 03:54:06;;;;;;;14.00;7.28;;;;;;;0.05;81.64;100784.00;5115962;28;20480;-79
2022/02/06 03:56:36;;;;;;;14.15;7.07;;;;;;;-0.05;82.72;100783.22;5115670;28;20046;-81
2022/02/06 03:59:05;;;;;;;12.45;6.78;;;;;;;-0.09;83.30;100778.88;5115801;28;20431;-78
2022/02/06 04:01:33;;;;;;;11.50;6.00;;;;;;;-0.15;84.27;100784.16;5115784;28;20400;-78
2022/02/06 04:04:01;;;;;;;10.98;5.80;;;;;;;-0.05;83.05;100775.34;5115428;28;20071;-80
2022/02/06 04:06:29;;;;;;;12.32;5.40;;;;;;;-0.11;83.98;100772.75;5115453;28;20082;-80
2022/02/06 04:09:00;;;;;;;10.13;5.05;;;;;;;-0.14;83.35;100770.16;5115170;28;20051;-79
2022/02/06 04:11:44;;;;;;;9.50;5.25;;;;;;;-0.20;84.86;100764.97;5115544;28;20059;-80
2022/02/06 04:14:22;;;;;;;11.85;5.47;;;;;;;-0.27;84.79;100768.53;5115703;28;20050;-79
2022/02/06 04:16:56;;;;;;;10.32;5.03;;;;;;;-0.37;86.29;100761.63;5115064;28;20127;-78
2022/02/06 04:19:25;;;;;;;9.15;5.03;;;;;;;-0.35;86.38;100762.47;5115287;28;20044;-79
2022/02/06 04:21:54;;;;;;;10.20;4.78;;;;;;;-0.16;85.44;100764.06;5114867;28;20051;-78
2022/02/06 04:24:23;;;;;;;12.15;4.90;;;;;;;-0.05;84.26;100753.50;5115423;28;20085;-79
2022/02/06 04:26:53;;;;;;;10.65;4.65;;;;;;;-0.11;84.58;100756.16;5115058;28;20042;-79
2022/02/06 04:29:24;;;;;;;9.98;5.03;;;;;;;-0.07;84.45;100750.88;5115205;28;20050;-78
2022/02/06 04:31:52;;;;;;;12.10;5.40;;;;;;;-0.06;84.63;100746.50;5115068;28;20047;-78
2022/02/06 04:34:23;;;;;;;10.05;5.20;;;;;;;-0.12;84.52;100742.19;5115201;28;20123;-79
2022/02/06 04:36:59;;;;;;;11.30;5.63;;;;;;;-0.28;85.47;100740.59;5114786;28;20036;-79
2022/02/06 04:42:22;;;;;;;10.73;5.88;;;;;;;-0.40;85.64;100735.41;5115178;28;20043;-77
2022/02/06 04:45:20;;;;;;;11.73;6.05;;;;;;;-0.60;87.20;100732.94;5114725;28;20126;-78
2022/02/06 04:53:45;;;;;;;10.32;5.68;;;;;;;-0.40;85.61;100740.66;5103726;28;20054;-77
2022/02/06 05:15:56;;;;;;;12.13;6.68;;;;;;;-1.05;89.25;100736.75;5114397;28;20044;-81
2022/02/06 05:18:56;;;;;;;14.02;6.82;;;;;;;-1.18;91.72;100722.81;5113764;28;20044;-81
2022/02/06 05:21:51;;;;;;;13.63;6.72;;;;;;;-1.22;92.86;100731.56;5114256;28;20072;-80
2022/02/06 05:29:59;;;;;;;11.23;6.20;;;;;;;-1.20;95.60;100724.59;5103636;28;20055;-79
2022/02/06 05:32:35;;;;;;;11.90;5.53;;;;;;;-1.02;94.29;100723.63;5114081;28;20039;-78
2022/02/06 05:35:07;;;;;;;8.60;4.63;;;;;;;-0.89;92.95;100722.66;5113825;28;20043;-77
2022/02/06 05:37:36;;;;;;;7.85;4.57;;;;;;;-0.74;92.08;100724.31;5114206;28;20467;-77
2022/02/06 05:40:05;;;;;;;9.45;4.53;;;;;;;-0.47;89.53;100723.28;5113770;28;20043;-76
2022/02/06 05:42:33;;;;;;;11.35;4.20;;;;;;;-0.16;86.30;100723.88;5113927;28;20396;-77
2022/02/06 05:45:02;;;;;;;9.10;3.90;;;;;;;0.01;84.81;100721.09;5113674;28;20032;-76
2022/02/06 05:47:33;;;;;;;7.90;3.40;;;;;;;0.15;83.92;100724.44;5113565;28;20043;-76
2022/02/06 05:50:01;;;;;;;7.75;3.53;;;;;;;0.38;81.18;100722.44;5113652;28;20434;-75
2022/02/06 05:52:33;;;;;;;7.15;3.58;;;;;;;0.45;79.66;100724.13;5113773;28;20507;-76
2022/02/06 05:55:02;;;;;;;7.32;3.58;;;;;;;0.46;79.41;100720.59;5113891;28;20079;-76
2022/02/06 05:57:30;;;;;;;6.95;3.10;;;;;;;0.50;79.26;100716.19;5113747;28;20047;-76
2022/02/06 05:59:58;;;;;;;6.72;3.50;;;;;;;0.64;77.96;100710.78;5113186;28;20093;-76
2022/02/06 06:02:27;;;;;;;8.75;3.15;;;;;;;0.68;77.36;100709.88;5113512;28;20048;-76
2022/02/06 06:04:56;;;;;;;7.60;3.25;;;;;;;0.84;76.49;100698.25;5113603;28;20127;-76
2022/02/06 06:07:26;;;;;;;6.63;2.90;;;;;;;0.86;75.78;100693.84;5113841;28;20039;-76
2022/02/06 06:09:56;;;;;;;8.60;2.95;;;;;;;0.93;75.02;100690.25;5113073;28;20058;-76
2022/02/06 06:12:24;;;;;;;6.70;3.00;;;;;;;1.06;74.31;100697.09;5113784;28;20067;-76
2022/02/06 06:14:52;;;;;;;6.97;3.10;;;;;;;0.97;74.98;100694.59;5113399;28;20067;-76
2022/02/06 06:17:20;;;;;;;8.55;3.38;;;;;;;1.12;73.75;100696.97;5113569;28;20168;-76
2022/02/06 06:19:49;;;;;;;6.75;3.15;;;;;;;1.21;73.22;100690.72;5113364;28;20042;-75
2022/02/06 06:22:19;;;;;;;9.20;3.33;;;;;;;1.27;72.38;100695.03;5113181;28;20040;-76
2022/02/06 06:24:53;;;;;;;6.35;2.78;;;;;;;1.36;72.15;100689.63;5113225;28;20047;-77
2022/02/06 06:27:22;;;;;;;7.18;2.92;;;;;;;1.38;71.80;100696.59;5113641;28;20092;-76
2022/02/06 06:29:50;;;;;;;8.65;3.10;;;;;;;1.32;71.59;100699.31;5116383;28;20070;-76
2022/02/06 06:32:19;;;;;;;11.40;3.35;;;;;;;1.45;71.02;100697.38;5117520;28;20476;-76
2022/02/06 06:34:47;;;;;;;6.57;2.83;;;;;;;1.43;71.46;100693.88;5117316;28;20093;-79
2022/02/06 06:37:17;;;;;;;5.72;2.72;;;;;;;1.46;70.74;100701.75;5117075;28;20050;-75
2022/02/06 06:39:48;;;;;;;7.10;3.10;;;;;;;1.35;71.48;100687.88;5117140;28;20043;-76
2022/02/06 06:42:22;;;;;;;5.55;2.85;;;;;;;1.34;71.92;100696.66;5117442;28;20040;-76
2022/02/06 06:44:51;;;;;;;9.75;3.03;;;;;;;1.32;71.96;100690.56;5116890;28;20067;-78
2022/02/06 06:47:19;;;;;;;6.45;3.53;;;;;;;1.31;72.22;100691.44;5116902;28;20047;-77
2022/02/06 06:49:48;;;;;;;9.52;3.67;;;;;;;1.34;72.13;100684.38;5117448;28;20448;-88
2022/02/06 06:52:16;;;;;;;7.72;3.88;;;;;;;1.31;72.23;100692.31;5117510;28;20040;-86
2022/02/06 06:54:48;;;;;;;7.28;3.72;;;;;;;1.24;72.99;100681.91;5116774;28;20056;-85
2022/02/06 06:57:20;;;;;;;9.82;4.80;;;;;;;1.10;74.15;100683.00;5117149;28;20066;-80
2022/02/06 07:02:32;;;;;;;8.95;4.65;;;;;;;0.96;75.01;100677.06;5099896;28;20327;-79
2022/02/06 07:05:03;;;;;;;10.82;5.05;;;;;;;0.91;76.20;100675.41;5116671;28;20043;-79
2022/02/06 07:07:32;;;;;;;10.68;5.28;;;;;;;0.91;76.08;100676.28;5116993;28;20097;-80
2022/02/06 07:10:05;;;;;;;11.98;5.13;;;;;;;0.89;76.39;100678.06;5116299;28;20050;-85
2022/02/06 07:12:34;;;;;;;10.35;5.05;;;;;;;0.86;75.73;100659.69;5117152;28;20040;-86
2022/02/06 07:15:06;;;;;;;11.32;5.35;;;;;;;0.95;76.92;100666.59;5116756;28;20495;-79
2022/02/06 07:17:34;;;;;;;9.43;4.85;;;;;;;0.96;76.23;100674.44;5116879;28;20473;-79
2022/02/06 07:20:04;;;;;;;12.75;5.50;;;;;;;0.93;76.29;100658.72;5116391;28;20047;-79
2022/02/06 07:22:35;;;;;;;10.98;6.00;;;;;;;1.12;76.08;100664.59;5098285;28;20071;-77
2022/02/06 07:25:05;;;;;;;16.58;5.85;;;;;;;1.07;75.93;100656.78;5116433;28;20468;-77
2022/02/06 07:27:36;;;;;;;10.55;5.70;;;;;;;1.08;75.99;100668.16;5116113;28;20043;-77
2022/02/06 07:30:08;;;;;;;11.10;5.68;;;;;;;1.10;75.96;100664.63;5116335;28;20052;-77
2022/02/06 07:32:38;;;;;;;11.98;6.10;;;;;;;1.12;76.09;100661.94;5117033;28;20067;-76
2022/02/06 07:35:09;;;;;;;12.63;5.65;;;;;;;1.14;76.16;100662.78;5115859;28;20046;-77
2022/02/06 07:37:38;;;;;;;12.45;6.57;;;;;;;1.27;76.50;100663.50;5116491;28;20046;-77
2022/02/06 07:40:07;;;;;;;11.00;5.43;;;;;;;1.33;75.37;100658.13;5115414;28;20040;-77
2022/02/06 07:42:36;;;;;;;13.02;5.75;;;;;;;1.33;75.65;100652.88;5116278;28;20047;-77
2022/02/06 07:45:06;;;;;;;10.30;5.75;;;;;;;1.44;74.81;100674.59;5098120;28;20043;-77
2022/02/06 07:47:34;;;;;;;10.55;5.55;;;;;;;1.53;74.73;100669.19;5115850;28;20090;-76
2022/02/06 07:50:09;;;;;;;11.07;5.50;;;;;;;1.57;73.79;100676.13;5115823;28;20067;-77
2022/02/06 07:52:38;;;;;;;10.90;5.75;;;;;;;1.64;73.77;100674.25;5115792;28;20039;-76
2022/02/06 07:55:08;;;;;;;12.88;5.22;;;;;;;1.70;72.62;100679.41;5115992;28;20455;-77
2022/02/06 07:57:38;;;;;;;11.65;5.85;;;;;;;1.79;73.42;100673.13;5117003;28;20044;-77
2022/02/06 08:00:10;;;;;;;12.02;6.07;;;;;;;1.81;73.28;100666.94;5115636;28;20040;-78
2022/02/06 08:02:38;;;;;;;12.18;5.63;;;;;;;1.90;72.69;100677.31;5115995;28;20048;-77
2022/02/06 08:05:07;;;;;;;12.80;6.22;;;;;;;1.89;73.13;100672.06;5116072;28;20073;-77
2022/02/06 08:07:36;;;;;;;13.23;6.10;;;;;;;1.94;72.92;100671.09;5097585;28;20093;-76
2022/02/06 08:10:06;;;;;;;13.02;6.47;;;;;;;2.02;73.12;100660.41;5115555;28;20050;-76
2022/02/06 08:12:43;;;;;;;12.85;6.15;;;;;;;2.04;72.27;100661.28;5115436;28;20047;-79
2022/02/06 08:15:13;;;;;;;11.82;5.90;;;;;;;2.12;72.73;100667.25;5115364;28;20078;-76
2022/02/06 08:17:42;;;;;;;12.82;5.72;;;;;;;2.20;72.47;100664.47;5115543;28;20047;-75
2022/02/06 08:20:12;;;;;;;11.30;5.28;;;;;;;2.34;70.75;100664.22;5114772;28;20047;-77
2022/02/06 08:22:42;;;;;;;13.07;5.40;;;;;;;2.40;70.64;100662.31;5115504;28;20500;-75
2022/02/06 08:25:11;;;;;;;11.10;5.15;;;;;;;2.59;70.07;100655.75;5114777;28;20067;-72
2022/02/06 08:27:41;;;;;;;9.90;5.05;;;;;;;2.84;69.05;100656.13;5115214;28;20374;-76
2022/02/06 08:30:12;;;;;;;12.65;6.00;;;;;;;2.99;67.63;100654.03;5114712;28;20062;-74
2022/02/06 08:32:42;;;;;;;11.55;5.45;;;;;;;3.13;67.20;100655.44;5115339;28;20035;-74
2022/02/06 08:35:12;;;;;;;13.13;6.20;;;;;;;3.31;65.98;100648.88;5114554;28;20046;-72
2022/02/06 08:37:42;;;;;;;13.95;6.10;;;;;;;3.37;66.04;100643.44;5115178;28;20458;-74
2022/02/06 08:40:16;;;;;;;14.05;7.90;;;;;;;3.26;66.72;100650.75;5114380;28;20499;-73
2022/02/06 08:42:46;;;;;;;15.15;7.03;;;;;;;3.12;66.71;100647.59;5115042;28;20040;-72
2022/02/06 08:45:17;;;;;;;16.60;7.40;;;;;;;3.15;66.97;100651.00;5114447;28;20067;-75
2022/02/06 08:47:47;;;;;;;13.02;6.90;;;;;;;3.24;66.55;100642.00;5114740;28;20043;-76
2022/02/06 08:50:15;;;;;;;14.43;7.10;;;;;;;3.27;67.26;100635.78;5114490;28;20048;-76
2022/02/06 08:52:45;;;;;;;13.45;6.45;;;;;;;3.38;65.89;100634.66;5113732;28;20096;-75
2022/02/06 08:55:14;;;;;;;12.57;5.63;;;;;;;3.43;64.45;100637.16;5114184;28;20044;-77
2022/02/06 08:57:45;;;;;;;10.85;5.40;;;;;;;3.56;64.30;100635.06;5114693;28;20138;-75
2022/02/06 09:00:14;;;;;;;16.67;6.10;;;;;;;3.65;63.98;100634.84;5114034;28;20040;-82
2022/02/06 09:02:43;;;;;;;13.43;5.60;;;;;;;3.75;63.42;100623.13;5114516;28;20071;-77
2022/02/06 09:05:12;;;;;;;11.00;5.28;;;;;;;3.92;62.07;100620.94;5114296;28;20039;-79
2022/02/06 09:07:41;;;;;;;11.13;5.15;;;;;;;3.88;61.63;100624.56;5114426;28;20405;-78
2022/02/06 09:10:14;;;;;;;8.70;4.80;;;;;;;3.99;61.08;100613.72;5114020;28;20040;-77
2022/02/06 09:12:48;;;;;;;7.60;4.40;;;;;;;3.94;60.74;100607.69;5114211;28;20040;-77
2022/02/06 09:15:17;;;;;;;8.77;4.30;;;;;;;4.07;60.39;100611.75;5114125;28;20123;-76
2022/02/06 09:17:46;;;;;;;12.70;4.57;;;;;;;4.08;60.46;100608.19;5114110;28;20088;-79
2022/02/06 09:20:17;;;;;;;13.32;4.75;;;;;;;4.04;60.38;100595.97;5113925;28;20050;-77
2022/02/06 09:22:45;;;;;;;10.07;4.30;;;;;;;4.05;60.22;100594.19;5114162;28;20119;-76
2022/02/06 09:25:14;;;;;;;8.85;4.50;;;;;;;4.17;60.16;100601.78;5114548;28;20399;-77
2022/02/06 09:27:44;;;;;;;10.00;4.20;;;;;;;4.12;60.51;100598.41;5098419;28;20055;-75
2022/02/06 09:30:15;;;;;;;10.90;4.50;;;;;;;4.21;59.76;100600.78;5113880;28;20415;-82
2022/02/06 09:35:12;;;;;;;7.93;4.45;;;;;;;4.48;59.12;100583.25;5113895;28;20063;-79
2022/02/06 09:37:41;;;;;;;7.47;4.35;;;;;;;4.47;59.02;100577.13;5113943;28;20447;-79
2022/02/06 09:40:14;;;;;;;10.25;4.82;;;;;;;4.57;58.65;100572.41;5113724;28;20084;-82
2022/02/06 09:42:44;;;;;;;7.47;4.13;;;;;;;4.66;57.98;100573.91;5114029;28;20100;-78
2022/02/06 09:45:13;;;;;;;8.70;4.30;;;;;;;4.44;58.49;100579.84;5110439;28;20038;-80
2022/02/06 09:47:42;;;;;;;8.30;3.90;;;;;;;4.47;59.25;100566.56;5113619;28;20047;-80
2022/02/06 09:50:10;;;;;;;9.40;4.07;;;;;;;4.46;58.71;100554.25;5113123;28;20046;-80
2022/02/06 09:52:41;;;;;;;8.98;4.03;;;;;;;4.48;58.94;100568.28;5113301;28;20044;-81
2022/02/06 09:55:16;;;;;;;9.98;4.32;;;;;;;4.68;59.00;100564.16;5095130;28;20040;-82
2022/02/06 09:57:56;;;;;;;9.00;3.97;;;;;;;4.59;58.61;100545.03;5113119;28;20040;-78
2022/02/06 10:00:28;;;;;;;6.60;4.20;;;;;;;4.70;58.51;100546.47;5112960;28;20047;-77
2022/02/06 10:03:03;;;;;;;8.15;3.95;;;;;;;4.73;58.61;100543.72;5113337;28;20039;-77
2022/02/06 10:05:35;;;;;;;7.47;4.05;;;;;;;4.88;58.55;100545.91;5113348;28;20092;-75
2022/02/06 10:08:14;;;;;;;7.78;4.22;;;;;;;5.00;58.50;100544.63;5113379;28;20036;-75
2022/02/06 10:10:53;;;;;;;8.25;4.13;;;;;;;5.08;58.55;100534.66;5113150;28;20066;-76
2022/02/06 10:13:22;;;;;;;11.18;4.40;;;;;;;5.08;58.72;100532.03;5112879;28;20108;-76
2022/02/06 10:15:53;;;;;;;10.95;4.28;;;;;;;5.29;58.09;100523.38;5113223;28;20096;-74
2022/02/06 10:18:29;;;;;;;7.38;3.67;;;;;;;5.33;57.99;100516.22;5113125;28;20054;-72
2022/02/06 10:20:58;;;;;;;8.60;3.83;;;;;;;5.37;57.86;100513.38;5113469;28;20044;-72
2022/02/06 10:23:36;;;;;;;8.45;3.88;;;;;;;5.34;58.09;100512.66;5094318;28;20048;-72
2022/02/06 10:26:20;;;;;;;6.32;3.38;;;;;;;5.36;57.99;100506.38;5113012;28;20044;-72
2022/02/06 10:28:58;;;;;;;10.27;3.90;;;;;;;5.41;58.24;100506.22;5113397;28;20043;-71
2022/02/06 10:31:28;;;;;;;7.38;3.30;;;;;;;5.47;57.50;100498.06;5113185;28;20055;-71
2022/02/06 10:33:56;;;;;;;6.93;3.47;;;;;;;5.48;57.69;100499.78;5113432;28;20085;-71
2022/02/06 10:36:34;;;;;;;7.03;3.55;;;;;;;5.38;57.68;100499.25;5112573;28;20568;-71
2022/02/06 10:39:09;;;;;;;9.25;3.53;;;;;;;5.36;57.96;100489.63;5113409;28;20067;-72
2022/02/06 10:41:44;;;;;;;9.88;3.33;;;;;;;5.41;57.74;100483.28;5113312;28;20048;-71
2022/02/06 10:44:13;;;;;;;6.18;3.00;;;;;;;5.35;57.62;100472.91;5112586;28;20040;-72
2022/02/06 10:46:46;;;;;;;7.72;3.33;;;;;;;5.36;57.29;100457.91;5112998;28;20047;-76
2022/02/06 10:49:16;;;;;;;5.47;3.58;;;;;;;5.39;57.47;100457.78;5112723;28;20048;-72
2022/02/06 10:51:48;;;;;;;8.35;3.20;;;;;;;5.45;57.86;100452.28;5113363;28;20473;-72
2022/02/06 10:54:21;;;;;;;6.57;3.77;;;;;;;5.54;57.10;100441.38;5112455;28;20093;-72
2022/02/06 10:57:01;;;;;;;9.27;3.20;;;;;;;5.62;57.19;100439.31;5112856;28;20070;-72
2022/02/06 10:59:38;;;;;;;7.75;2.90;;;;;;;5.77;56.80;100427.25;5112788;28;20370;-72
2022/02/06 11:02:07;;;;;;;7.60;2.75;;;;;;;6.03;56.17;100424.53;5112769;28;20456;-71
2022/02/06 11:04:43;;;;;;;8.57;3.58;;;;;;;6.15;56.28;100422.31;5112176;28;20485;-72
2022/02/06 11:07:16;;;;;;;6.68;3.10;;;;;;;6.25;55.57;100419.25;5112244;28;20040;-76
2022/02/06 11:09:46;;;;;;;7.10;3.47;;;;;;;6.31;55.05;100419.00;5113250;28;20050;-71
2022/02/06 11:12:19;;;;;;;6.40;3.25;;;;;;;6.40;55.26;100406.31;5112851;28;20044;-71
2022/02/06 11:14:51;;;;;;;7.18;3.10;;;;;;;6.42;55.31;100399.16;5112534;28;20047;-71
2022/02/06 11:17:21;;;;;;;7.90;3.30;;;;;;;6.47;55.19;100391.91;5116475;28;20455;-70
2022/02/06 11:20:00;;;;;;;5.82;3.13;;;;;;;6.59;53.48;100376.34;5116501;28;20593;-70
2022/02/06 11:22:29;;;;;;;4.82;2.80;;;;;;;6.63;53.39;100361.16;5116182;28;20430;-71
2022/02/06 11:25:01;;;;;;;4.80;2.58;;;;;;;6.73;53.13;100362.50;5116278;28;20109;-70
2022/02/06 11:27:29;;;;;;;6.80;3.17;;;;;;;6.78;52.50;100351.72;5115798;28;20047;-71
2022/02/06 11:29:58;;;;;;;7.25;2.92;;;;;;;6.81;52.81;100344.47;5116537;28;20062;-70
2022/02/06 11:32:27;;;;;;;6.47;2.47;;;;;;;6.85;51.88;100339.91;5116189;28;20067;-71
2022/02/06 11:34:58;;;;;;;4.13;2.67;;;;;;;6.86;51.94;100325.75;5116325;28;20075;-71
2022/02/06 11:46:14;;;;;;;8.07;2.92;;;;;;;6.77;53.03;100295.19;5115880;28;20040;-73
2022/02/06 11:48:45;;;;;;;7.63;2.70;;;;;;;6.82;52.62;100293.19;5096964;28;20056;-71
2022/02/06 11:51:17;;;;;;;7.40;2.95;;;;;;;6.80;53.03;100294.19;5115306;28;20131;-71
2022/02/06 11:53:48;;;;;;;6.25;2.80;;;;;;;6.83;52.88;100273.69;5115386;28;20058;-72
2022/02/06 11:56:33;;;;;;;4.80;2.83;;;;;;;6.87;52.77;100272.63;5115098;28;20050;-73
2022/02/06 11:59:07;;;;;;;6.97;2.85;;;;;;;6.96;52.83;100265.22;5115663;28;20067;-75
2022/02/06 12:01:36;;;;;;;6.63;2.65;;;;;;;6.93;52.90;100257.38;5115518;28;20051;-74
2022/02/06 12:04:18;;;;;;;8.02;2.72;;;;;;;6.97;52.80;100256.31;5115674;28;20117;-74
2022/02/06 12:06:58;;;;;;;5.90;2.83;;;;;;;7.03;52.88;100254.22;5115413;28;20051;-74
2022/02/06 12:09:29;;;;;;;5.25;2.70;;;;;;;7.12;52.75;100247.63;5115335;28;20128;-75
2022/02/06 12:12:13;;;;;;;6.55;3.35;;;;;;;7.31;52.60;100247.66;5115968;28;20044;-73
2022/02/06 12:14:46;;;;;;;6.38;3.25;;;;;;;7.40;52.02;100242.78;5114978;28;20126;-75
2022/02/06 12:17:21;;;;;;;8.73;3.10;;;;;;;7.45;52.17;100239.91;5115128;28;20074;-75
2022/02/06 12:20:07;;;;;;;5.15;2.80;;;;;;;7.47;52.47;100228.28;5115082;28;20404;-76
2022/02/06 12:22:41;;;;;;;6.43;3.30;;;;;;;7.47;52.49;100222.97;5115184;28;20048;-76
2022/02/06 12:25:25;;;;;;;10.93;3.55;;;;;;;7.50;52.82;100205.19;5115335;28;20035;-75
2022/02/06 12:28:27;;;;;;;5.82;3.45;;;;;;;7.60;52.38;100202.00;5115159;28;20039;-75
2022/02/06 12:30:58;;;;;;;5.20;3.03;;;;;;;7.73;52.03;100202.28;5115135;28;20053;-75
2022/02/06 12:33:32;;;;;;;6.93;3.25;;;;;;;7.82;51.78;100206.28;5115333;28;20040;-75
2022/02/06 12:38:47;;;;;;;7.63;3.10;;;;;;;8.02;51.59;100188.41;5114951;28;20078;-76
2022/02/06 12:41:23;;;;;;;6.53;3.45;;;;;;;7.98;51.91;100184.16;5115017;28;20092;-75
2022/02/06 12:43:56;;;;;;;5.97;2.88;;;;;;;8.00;51.88;100181.44;5114871;28;20104;-75
2022/02/06 12:46:27;;;;;;;6.88;3.58;;;;;;;8.01;52.31;100176.06;5115086;28;20130;-74
2022/02/06 12:49:01;;;;;;;6.43;3.35;;;;;;;7.92;53.04;100170.38;5114094;28;20387;-74
2022/02/06 12:51:30;;;;;;;7.53;4.35;;;;;;;8.01;52.71;100170.75;5112810;28;20051;-74
2022/02/06 12:54:03;;;;;;;8.02;4.13;;;;;;;8.01;52.99;100170.75;5112955;28;20105;-74
2022/02/06 12:56:33;;;;;;;7.47;3.73;;;;;;;8.11;53.25;100170.28;5110169;28;20044;-74
2022/02/06 12:59:04;;;;;;;7.75;3.85;;;;;;;8.08;53.50;100157.13;5113356;28;20427;-75
2022/02/06 13:01:38;;;;;;;8.40;3.83;;;;;;;8.09;53.41;100151.75;5110661;28;20171;-74
2022/02/06 13:04:10;;;;;;;7.05;3.70;;;;;;;8.02;53.78;100137.94;5112982;28;20481;-73
2022/02/06 13:06:40;;;;;;;7.63;3.70;;;;;;;7.97;54.46;100136.44;5112458;28;20502;-75
2022/02/06 13:09:19;;;;;;;6.25;3.45;;;;;;;7.97;54.93;100134.66;5114035;28;20428;-74
2022/02/06 13:11:53;;;;;;;5.82;3.65;;;;;;;8.00;55.22;100130.97;5114170;28;20494;-73
2022/02/06 13:14:45;;;;;;;6.93;3.78;;;;;;;8.01;55.22;100109.66;5113981;28;20039;-76
2022/02/06 13:17:23;;;;;;;7.70;3.92;;;;;;;7.95;55.75;100112.63;5096256;28;20044;-77
2022/02/06 13:20:05;;;;;;;9.23;4.25;;;;;;;7.96;56.61;100103.72;5115450;28;20074;-75
2022/02/06 13:22:48;;;;;;;8.75;4.38;;;;;;;8.13;56.37;100088.72;5113816;28;20495;-74
2022/02/06 13:25:50;;;;;;;7.32;3.80;;;;;;;8.26;56.13;100076.47;5113751;28;20560;-74
2022/02/06 13:31:19;;;;;;;10.07;4.55;;;;;;;8.28;56.64;100063.97;5107605;28;20044;-77
2022/02/06 13:33:57;;;;;;;8.40;4.47;;;;;;;8.28;56.55;100055.97;5113495;28;20040;-76
2022/02/06 13:36:37;;;;;;;8.07;4.45;;;;;;;8.33;56.96;100056.63;5112642;28;20045;-78